Time;durP1;ratioP1;P1;durP2;ratioP2;P2;SDS_P1;SDS_P2;PMS_P1;PMS_P2;Temp;Humidity;BMP_temperature;BMP_pressure;BME280_temperature;BME280_humidity;BME280_pressure;Samples;Min_cycle;Max_cycle;Signal;HPM_P1;HPM_P2
2021/08/22 00:02:07;;;;;;;9.27;6.07;;;20.60;99.90;;;;;;5033971;28;20517;-72
2021/08/22 00:04:34;;;;;;;8.73;6.37;;;20.60;99.90;;;;;;5048556;28;20506;-74
2021/08/22 00:07:01;;;;;;;8.33;6.40;;;20.70;99.90;;;;;;5045322;28;20472;-69
2021/08/22 00:09:28;;;;;;;6.60;5.50;;;20.70;99.90;;;;;;5039246;28;20463;-75
2021/08/22 00:11:56;;;;;;;5.97;5.27;;;20.60;99.90;;;;;;5033992;28;20458;-73
2021/08/22 00:14:23;;;;;;;10.23;5.50;;;20.60;99.90;;;;;;5036076;28;20570;-69
2021/08/22 00:16:50;;;;;;;5.87;5.10;;;20.70;99.90;;;;;;5033193;28;20482;-69
2021/08/22 00:19:17;;;;;;;7.30;5.67;;;20.70;99.90;;;;;;5039105;28;20534;-69
2021/08/22 00:21:44;;;;;;;7.33;6.10;;;20.80;99.90;;;;;;5036814;28;20456;-69
2021/08/22 00:24:11;;;;;;;7.93;5.53;;;20.60;99.90;;;;;;5038235;28;20466;-68
2021/08/22 00:26:38;;;;;;;12.20;6.40;;;20.60;99.90;;;;;;5033908;28;20555;-72
2021/08/22 00:29:06;;;;;;;10.40;6.47;;;20.60;99.90;;;;;;5038339;28;20535;-69
2021/08/22 00:31:33;;;;;;;11.30;5.60;;;20.60;99.90;;;;;;5032071;28;20873;-68
2021/08/22 00:34:00;;;;;;;6.27;5.03;;;20.40;99.90;;;;;;5029120;28;20522;-69
2021/08/22 00:36:27;;;;;;;12.03;5.33;;;20.30;99.90;;;;;;5031063;28;20490;-73
2021/08/22 00:38:54;;;;;;;6.70;5.83;;;20.40;99.90;;;;;;5040846;28;20879;-69
2021/08/22 00:41:21;;;;;;;7.70;6.13;;;20.40;99.90;;;;;;5035762;28;20548;-71
2021/08/22 00:43:48;;;;;;;7.57;6.10;;;20.50;99.90;;;;;;5035574;28;20459;-72
2021/08/22 00:46:17;;;;;;;7.77;6.33;;;20.60;99.90;;;;;;5037976;28;20990;-71
2021/08/22 00:48:45;;;;;;;12.30;6.50;;;20.50;99.90;;;;;;5042593;28;20972;-70
2021/08/22 00:51:15;;;;;;;10.70;6.53;;;20.50;99.90;;;;;;5037667;28;20479;-71
2021/08/22 00:53:43;;;;;;;6.33;5.50;;;20.40;99.90;;;;;;5034194;28;20483;-69
2021/08/22 00:56:11;;;;;;;8.57;6.93;;;20.40;99.90;;;;;;5031648;28;20511;-69
2021/08/22 00:58:38;;;;;;;9.23;4.73;;;20.30;99.90;;;;;;5031142;28;20487;-69
2021/08/22 01:01:06;;;;;;;6.70;4.83;;;20.30;99.90;;;;;;5031976;28;20479;-72
2021/08/22 01:03:41;;;;;;;9.03;6.23;;;20.00;99.90;;;;;;5028663;28;20479;-72
2021/08/22 01:06:16;;;;;;;6.63;4.40;;;19.90;99.90;;;;;;5036507;28;20474;-68
2021/08/22 01:08:48;;;;;;;5.90;4.97;;;20.00;99.90;;;;;;5034777;28;20546;-69
2021/08/22 01:11:17;;;;;;;6.57;4.90;;;20.00;99.90;;;;;;5033544;28;20454;-68
2021/08/22 01:13:48;;;;;;;6.13;5.47;;;20.10;99.90;;;;;;5035833;28;20742;-69
2021/08/22 01:16:16;;;;;;;9.90;6.07;;;20.20;99.90;;;;;;5027099;28;20483;-70
2021/08/22 01:18:48;;;;;;;8.73;4.77;;;20.30;99.90;;;;;;5036000;28;20546;-68
2021/08/22 01:21:18;;;;;;;8.37;5.37;;;20.30;99.90;;;;;;5035642;28;20950;-71
2021/08/22 01:23:49;;;;;;;6.80;5.00;;;20.10;99.90;;;;;;5035727;28;21027;-68
2021/08/22 01:26:19;;;;;;;6.03;4.93;;;20.10;99.90;;;;;;5037389;28;20475;-69
2021/08/22 01:28:46;;;;;;;12.57;4.70;;;19.90;99.90;;;;;;5032867;28;20887;-72
2021/08/22 01:31:17;;;;;;;7.13;4.87;;;19.90;99.90;;;;;;5030962;28;21014;-72
2021/08/22 01:33:47;;;;;;;5.87;3.50;;;19.90;99.90;;;;;;5034009;28;20542;-69
2021/08/22 01:36:15;;;;;;;4.97;4.13;;;19.80;99.90;;;;;;5030630;28;20479;-68
2021/08/22 01:38:42;;;;;;;5.20;4.50;;;19.80;99.90;;;;;;5038491;28;20538;-68
2021/08/22 01:41:10;;;;;;;5.77;4.00;;;19.70;99.90;;;;;;5034553;28;20975;-68
2021/08/22 01:43:38;;;;;;;5.60;3.80;;;19.70;99.90;;;;;;5040370;28;20451;-68
2021/08/22 01:46:06;;;;;;;4.67;3.87;;;19.60;99.90;;;;;;5037684;28;20480;-73
2021/08/22 01:48:34;;;;;;;3.87;3.03;;;19.50;99.90;;;;;;5032925;28;20463;-69
2021/08/22 01:51:03;;;;;;;3.87;3.20;;;19.40;99.90;;;;;;5032294;28;20964;-68
2021/08/22 01:53:31;;;;;;;4.37;3.93;;;19.40;99.90;;;;;;5038778;28;20475;-73
2021/08/22 01:55:58;;;;;;;5.27;3.60;;;19.40;99.90;;;;;;5039930;28;21086;-69
2021/08/22 01:58:27;;;;;;;5.40;3.77;;;19.40;99.90;;;;;;5033310;28;20490;-68
2021/08/22 02:00:55;;;;;;;4.67;3.20;;;19.40;99.90;;;;;;5033828;28;20546;-67
2021/08/22 02:03:30;;;;;;;4.40;3.20;;;19.40;99.90;;;;;;5030583;28;20554;-71
2021/08/22 02:06:04;;;;;;;5.00;3.40;;;19.30;99.90;;;;;;5036640;28;21117;-71
2021/08/22 02:08:35;;;;;;;4.27;3.10;;;19.50;99.90;;;;;;5039786;28;20475;-68
2021/08/22 02:11:08;;;;;;;3.50;2.60;;;19.50;99.90;;;;;;5039379;28;21026;-68
2021/08/22 02:13:39;;;;;;;4.23;3.07;;;19.40;99.90;;;;;;5043162;28;20558;-72
2021/08/22 02:16:09;;;;;;;4.83;3.27;;;19.20;99.90;;;;;;5035295;28;20491;-68
2021/08/22 02:18:37;;;;;;;5.93;3.90;;;19.30;99.90;;;;;;5039440;28;20439;-69
2021/08/22 02:21:04;;;;;;;4.13;2.83;;;19.30;99.90;;;;;;5039936;28;20459;-72
2021/08/22 02:23:33;;;;;;;10.63;3.67;;;19.10;99.90;;;;;;5038970;28;20546;-69
2021/08/22 02:26:01;;;;;;;3.47;3.00;;;19.10;99.90;;;;;;5034363;28;20563;-71
2021/08/22 02:28:28;;;;;;;6.83;3.30;;;19.10;99.90;;;;;;5038530;28;20462;-69
2021/08/22 02:30:55;;;;;;;4.87;3.23;;;19.10;99.90;;;;;;5037368;28;20446;-71
2021/08/22 02:33:23;;;;;;;4.47;2.90;;;19.10;99.90;;;;;;5037225;28;21131;-74
2021/08/22 02:35:50;;;;;;;6.33;3.60;;;19.10;99.90;;;;;;5034983;28;20487;-69
2021/08/22 02:38:17;;;;;;;4.07;3.00;;;19.10;99.90;;;;;;5031343;28;20582;-73
2021/08/22 02:40:45;;;;;;;4.30;3.03;;;19.10;99.90;;;;;;5033509;28;20551;-69
2021/08/22 02:43:12;;;;;;;4.53;2.80;;;19.20;99.90;;;;;;5035710;28;20459;-69
2021/08/22 02:45:39;;;;;;;4.77;2.90;;;19.20;99.90;;;;;;5033321;28;21236;-69
2021/08/22 02:48:06;;;;;;;3.70;2.90;;;19.20;99.90;;;;;;5038590;28;20451;-70
2021/08/22 02:50:33;;;;;;;4.87;3.53;;;19.20;99.90;;;;;;5039338;28;20509;-71
2021/08/22 02:53:00;;;;;;;3.97;2.30;;;19.20;99.90;;;;;;5037295;28;20539;-72
2021/08/22 02:55:27;;;;;;;4.90;3.60;;;19.10;99.90;;;;;;5029307;28;20472;-70
2021/08/22 02:57:55;;;;;;;3.97;3.03;;;19.20;99.90;;;;;;5040539;28;20468;-73
2021/08/22 03:00:23;;;;;;;3.20;2.63;;;19.10;99.90;;;;;;5032665;28;20436;-69
2021/08/22 03:02:49;;;;;;;3.40;3.03;;;18.90;99.90;;;;;;5035689;28;20483;-69
2021/08/22 03:05:16;;;;;;;3.10;2.60;;;19.00;99.90;;;;;;5032309;28;20554;-69
2021/08/22 03:07:43;;;;;;;3.77;2.60;;;18.90;99.90;;;;;;5032003;28;20537;-69
2021/08/22 03:10:11;;;;;;;6.30;3.23;;;18.80;99.90;;;;;;5039687;28;20448;-72
2021/08/22 03:12:37;;;;;;;2.37;1.93;;;18.90;99.90;;;;;;5036429;28;20550;-69
2021/08/22 03:15:08;;;;;;;2.40;1.87;;;18.80;99.90;;;;;;5028427;28;20472;-71
2021/08/22 03:17:35;;;;;;;2.93;2.37;;;18.80;99.90;;;;;;5035173;28;20471;-69
2021/08/22 03:20:04;;;;;;;3.30;1.90;;;18.80;99.90;;;;;;5046141;28;20474;-74
2021/08/22 03:22:31;;;;;;;2.20;1.90;;;18.70;99.90;;;;;;5053912;28;20444;-71
2021/08/22 03:24:58;;;;;;;5.07;2.87;;;18.80;99.90;;;;;;5052152;28;20570;-75
2021/08/22 03:27:25;;;;;;;3.30;2.20;;;18.90;99.90;;;;;;5037520;28;20938;-75
2021/08/22 03:29:53;;;;;;;3.50;2.83;;;19.00;99.90;;;;;;5032718;28;20460;-69
2021/08/22 03:32:21;;;;;;;3.30;2.57;;;19.00;99.90;;;;;;5033649;28;20998;-76
2021/08/22 03:34:48;;;;;;;3.10;2.33;;;18.90;99.90;;;;;;5033669;28;20519;-69
2021/08/22 03:37:15;;;;;;;2.70;2.50;;;18.90;99.90;;;;;;5037192;28;20465;-72
2021/08/22 03:39:41;;;;;;;2.87;2.33;;;19.00;99.90;;;;;;5038154;28;20954;-70
2021/08/22 03:42:08;;;;;;;4.10;2.30;;;19.00;99.90;;;;;;5033804;28;26383;-69
2021/08/22 03:44:35;;;;;;;3.27;2.97;;;19.00;99.90;;;;;;5032156;28;20582;-71
2021/08/22 03:47:02;;;;;;;5.80;3.13;;;19.10;99.90;;;;;;5035381;28;20483;-69
2021/08/22 03:49:30;;;;;;;3.20;2.63;;;19.20;99.90;;;;;;5034405;28;20967;-72
2021/08/22 03:51:57;;;;;;;4.57;2.77;;;19.20;99.90;;;;;;5037746;28;25431;-70
2021/08/22 03:54:24;;;;;;;3.70;2.70;;;19.10;99.90;;;;;;5035517;28;20534;-70
2021/08/22 03:56:51;;;;;;;6.30;4.07;;;19.10;99.90;;;;;;5028602;28;20904;-72
2021/08/22 03:59:18;;;;;;;4.80;3.53;;;19.30;99.90;;;;;;5031678;28;20487;-72
2021/08/22 04:01:46;;;;;;;8.50;5.80;;;19.30;99.90;;;;;;5038790;28;20523;-68
2021/08/22 04:04:13;;;;;;;7.70;4.73;;;19.10;99.90;;;;;;5033488;28;20886;-73
2021/08/22 04:06:47;;;;;;;8.20;6.30;;;19.10;99.90;;;;;;5032391;28;20470;-73
2021/08/22 04:09:14;;;;;;;10.43;6.20;;;19.00;99.90;;;;;;5033053;28;20916;-68
2021/08/22 04:11:43;;;;;;;13.10;7.23;;;19.00;99.90;;;;;;5027197;28;20460;-70
2021/08/22 04:14:10;;;;;;;10.20;5.47;;;19.00;99.90;;;;;;5029945;28;20824;-69
2021/08/22 04:16:37;;;;;;;10.80;6.73;;;19.00;99.90;;;;;;5034719;28;20919;-69
2021/08/22 04:19:04;;;;;;;12.27;7.83;;;19.00;99.90;;;;;;5032577;28;20466;-71
2021/08/22 04:21:33;;;;;;;18.03;7.87;;;19.10;99.90;;;;;;5040628;28;20479;-73
2021/08/22 04:24:01;;;;;;;11.70;6.67;;;19.20;99.90;;;;;;5029375;28;20597;-73
2021/08/22 04:26:29;;;;;;;21.63;8.20;;;19.20;99.90;;;;;;5036809;28;21089;-71
2021/08/22 04:28:56;;;;;;;11.63;9.37;;;19.20;99.90;;;;;;5030217;28;20462;-69
2021/08/22 04:31:23;;;;;;;16.90;9.20;;;19.20;99.90;;;;;;5035006;28;20455;-70
2021/08/22 04:33:49;;;;;;;17.57;9.07;;;19.20;99.90;;;;;;5031461;28;20659;-68
2021/08/22 04:36:16;;;;;;;19.70;11.30;;;19.10;99.90;;;;;;5033932;28;20612;-71
2021/08/22 04:38:43;;;;;;;21.03;12.27;;;19.00;99.90;;;;;;5033681;28;20550;-72
2021/08/22 04:41:17;;;;;;;20.30;10.87;;;19.00;99.90;;;;;;5029809;28;20456;-74
2021/08/22 04:43:44;;;;;;;23.50;12.83;;;19.00;99.90;;;;;;5031268;28;20835;-69
2021/08/22 04:46:11;;;;;;;14.40;9.53;;;19.00;99.90;;;;;;5029124;28;20482;-70
2021/08/22 04:48:38;;;;;;;24.90;12.07;;;19.00;99.90;;;;;;5035508;28;20467;-75
2021/08/22 04:51:05;;;;;;;19.17;10.67;;;19.10;99.90;;;;;;5031249;28;20448;-77
2021/08/22 04:53:33;;;;;;;19.00;11.40;;;19.10;99.90;;;;;;5039452;28;20456;-73
2021/08/22 04:56:00;;;;;;;15.50;8.10;;;19.00;99.90;;;;;;5021065;28;20626;-68
2021/08/22 04:58:29;;;;;;;19.17;11.73;;;19.00;99.90;;;;;;5049119;28;20574;-70
2021/08/22 05:00:55;;;;;;;20.53;12.10;;;18.90;99.90;;;;;;5041469;28;20450;-69
2021/08/22 05:03:22;;;;;;;25.53;13.43;;;18.90;99.90;;;;;;5033305;28;20451;-69
2021/08/22 05:05:49;;;;;;;23.57;14.70;;;18.90;99.90;;;;;;5035707;28;20575;-71
2021/08/22 05:08:17;;;;;;;28.47;16.13;;;18.90;99.90;;;;;;5037534;28;20511;-70
2021/08/22 05:10:45;;;;;;;25.93;14.87;;;18.80;99.90;;;;;;5039510;28;20456;-69
2021/08/22 05:13:12;;;;;;;32.47;19.03;;;18.80;99.90;;;;;;5049590;28;20481;-73
2021/08/22 05:15:41;;;;;;;29.83;14.30;;;18.70;99.90;;;;;;5038654;28;20598;-70
2021/08/22 05:18:08;;;;;;;28.37;15.77;;;18.70;99.90;;;;;;5038801;28;20514;-69
2021/08/22 05:20:35;;;;;;;22.27;13.60;;;18.70;99.90;;;;;;5047278;28;20443;-69
2021/08/22 05:23:02;;;;;;;27.40;15.67;;;18.80;99.90;;;;;;5050706;28;20475;-71
2021/08/22 05:25:29;;;;;;;35.97;18.77;;;18.80;99.90;;;;;;5043677;28;20529;-71
2021/08/22 05:27:56;;;;;;;27.77;17.43;;;18.80;99.90;;;;;;5048231;28;20444;-70
2021/08/22 05:30:22;;;;;;;28.40;15.30;;;18.80;99.90;;;;;;5053000;28;20504;-73
2021/08/22 05:32:51;;;;;;;27.77;15.80;;;18.90;99.90;;;;;;5048964;28;20527;-69
2021/08/22 05:35:18;;;;;;;23.80;14.77;;;19.00;99.90;;;;;;5040142;28;20581;-73
2021/08/22 05:37:45;;;;;;;28.67;15.40;;;19.00;99.90;;;;;;5049968;28;20494;-70
2021/08/22 05:40:12;;;;;;;29.10;15.67;;;19.00;99.90;;;;;;5045140;28;20480;-70
2021/08/22 05:42:39;;;;;;;23.20;14.47;;;19.00;99.90;;;;;;5047463;28;20547;-69
2021/08/22 05:45:06;;;;;;;29.70;17.30;;;19.10;99.90;;;;;;5044598;28;20513;-68
2021/08/22 05:47:33;;;;;;;24.70;16.23;;;19.10;99.90;;;;;;5042380;28;20626;-69
2021/08/22 05:50:03;;;;;;;23.93;15.20;;;19.10;99.90;;;;;;5040083;28;20447;-75
2021/08/22 05:52:29;;;;;;;26.43;15.03;;;19.20;99.90;;;;;;5046801;28;20446;-69
2021/08/22 05:54:56;;;;;;;25.10;14.77;;;19.20;99.90;;;;;;5042891;28;20503;-72
2021/08/22 05:57:24;;;;;;;27.07;16.20;;;19.20;99.90;;;;;;5040398;28;20487;-70
2021/08/22 05:59:50;;;;;;;23.97;14.97;;;19.40;99.90;;;;;;5049157;28;20554;-71
2021/08/22 06:02:17;;;;;;;23.47;14.83;;;19.30;99.90;;;;;;5047588;28;20952;-69
2021/08/22 06:04:44;;;;;;;26.03;14.70;;;19.40;99.90;;;;;;5039833;28;20582;-70
2021/08/22 06:07:18;;;;;;;19.73;13.47;;;19.50;99.90;;;;;;5039752;28;20548;-71
2021/08/22 06:09:46;;;;;;;24.40;14.37;;;19.40;99.90;;;;;;5049266;28;20446;-70
2021/08/22 06:12:13;;;;;;;23.20;13.80;;;19.40;99.90;;;;;;5042571;28;20531;-76
2021/08/22 06:14:39;;;;;;;25.47;14.50;;;19.50;99.90;;;;;;5032703;28;20570;-70
2021/08/22 06:17:06;;;;;;;24.03;14.50;;;19.60;99.90;;;;;;5037524;28;20816;-71
2021/08/22 06:19:33;;;;;;;18.83;10.97;;;19.70;99.90;;;;;;5038275;28;20501;-70
2021/08/22 06:22:01;;;;;;;19.63;12.00;;;19.70;99.90;;;;;;5045977;28;20535;-67
2021/08/22 06:24:29;;;;;;;16.27;11.17;;;19.70;99.90;;;;;;5041642;28;20543;-72
2021/08/22 06:26:56;;;;;;;25.23;12.60;;;19.80;99.90;;;;;;5022981;28;20898;-68
2021/08/22 06:29:23;;;;;;;21.30;11.53;;;19.80;99.90;;;;;;5037767;28;20464;-68
2021/08/22 06:31:51;;;;;;;19.97;9.40;;;19.80;99.90;;;;;;5040259;28;20547;-68
2021/08/22 06:34:17;;;;;;;24.37;12.57;;;19.80;99.90;;;;;;5040053;28;20459;-75
2021/08/22 06:36:45;;;;;;;18.37;10.37;;;19.80;99.90;;;;;;5048525;28;20484;-69
2021/08/22 06:39:13;;;;;;;20.10;11.20;;;19.70;99.90;;;;;;5053941;28;20482;-69
2021/08/22 06:41:41;;;;;;;19.00;9.83;;;19.60;99.90;;;;;;5039276;28;20468;-71
2021/08/22 06:44:08;;;;;;;19.00;11.40;;;19.50;99.90;;;;;;5031725;28;20593;-71
2021/08/22 06:46:35;;;;;;;15.47;8.60;;;19.50;99.90;;;;;;5045301;28;21266;-69
2021/08/22 06:49:02;;;;;;;19.23;10.80;;;19.60;99.90;;;;;;5047058;28;20579;-72
2021/08/22 06:51:30;;;;;;;24.90;13.03;;;19.70;99.90;;;;;;5039896;28;20469;-69
2021/08/22 06:53:57;;;;;;;18.63;10.40;;;19.80;99.90;;;;;;5044430;28;20456;-69
2021/08/22 06:56:25;;;;;;;21.00;10.10;;;19.90;99.90;;;;;;5045162;28;20558;-71
2021/08/22 06:58:53;;;;;;;19.27;10.13;;;19.80;99.90;;;;;;5046163;28;20475;-70
2021/08/22 07:01:20;;;;;;;17.40;10.90;;;19.80;99.90;;;;;;5048237;28;20502;-69
2021/08/22 07:03:47;;;;;;;22.30;11.07;;;19.70;99.90;;;;;;5039194;28;20456;-69
2021/08/22 07:06:15;;;;;;;14.53;10.03;;;19.70;99.90;;;;;;5048964;28;20514;-71
2021/08/22 07:08:42;;;;;;;22.00;12.03;;;19.60;99.90;;;;;;5048919;28;20491;-71
2021/08/22 07:11:09;;;;;;;21.30;10.90;;;19.80;99.90;;;;;;5047914;28;20853;-70
2021/08/22 07:13:36;;;;;;;18.43;10.57;;;19.80;99.90;;;;;;5048641;28;20542;-73
2021/08/22 07:16:05;;;;;;;21.27;11.33;;;19.90;99.90;;;;;;5037553;28;20552;-68
2021/08/22 07:18:32;;;;;;;18.03;8.90;;;20.10;99.90;;;;;;5041629;28;20560;-68
2021/08/22 07:20:59;;;;;;;19.00;11.20;;;20.10;99.90;;;;;;5042587;28;20459;-69
2021/08/22 07:23:26;;;;;;;20.73;9.97;;;20.20;99.90;;;;;;5045973;28;20490;-69
2021/08/22 07:25:53;;;;;;;18.83;10.20;;;20.20;99.90;;;;;;5039102;28;21023;-69
2021/08/22 07:28:20;;;;;;;18.10;10.50;;;20.30;99.90;;;;;;5050956;28;21031;-73
2021/08/22 07:30:47;;;;;;;16.97;9.97;;;20.40;99.90;;;;;;5044349;28;20455;-70
2021/08/22 07:33:15;;;;;;;18.90;10.17;;;20.70;99.90;;;;;;5046790;28;20559;-70
2021/08/22 07:35:42;;;;;;;20.00;9.43;;;21.00;99.90;;;;;;5040660;28;20529;-69
2021/08/22 07:38:09;;;;;;;15.10;9.87;;;21.00;99.90;;;;;;5042135;28;20976;-70
2021/08/22 07:40:37;;;;;;;15.90;9.70;;;20.90;99.90;;;;;;5033953;28;20443;-68
2021/08/22 07:43:04;;;;;;;17.70;10.70;;;20.80;99.90;;;;;;5045890;28;20449;-69
2021/08/22 07:45:31;;;;;;;18.93;10.07;;;20.80;99.90;;;;;;5043460;28;20570;-68
2021/08/22 07:47:58;;;;;;;12.57;8.33;;;20.80;99.90;;;;;;5043040;28;20440;-72
2021/08/22 07:50:26;;;;;;;12.60;8.30;;;21.40;99.90;;;;;;5038349;28;20458;-73
2021/08/22 07:52:53;;;;;;;16.47;10.13;;;22.10;99.90;;;;;;5044785;28;20538;-70
2021/08/22 07:55:20;;;;;;;14.90;10.67;;;22.00;99.90;;;;;;5049448;28;20558;-69
2021/08/22 07:57:47;;;;;;;12.20;9.20;;;22.00;99.90;;;;;;5041768;28;20575;-73
2021/08/22 08:00:15;;;;;;;12.73;8.40;;;22.20;99.90;;;;;;5042490;28;20459;-68
2021/08/22 08:02:42;;;;;;;11.47;7.57;;;22.70;99.90;;;;;;5036402;28;20480;-70
2021/08/22 08:05:09;;;;;;;13.63;9.07;;;23.20;99.90;;;;;;5034875;28;20574;-72
2021/08/22 08:07:38;;;;;;;10.70;8.53;;;23.70;99.90;;;;;;5038977;28;20537;-71
2021/08/22 08:10:06;;;;;;;12.60;8.70;;;23.70;99.90;;;;;;5040668;28;20543;-68
2021/08/22 08:12:33;;;;;;;12.27;8.10;;;24.40;99.90;;;;;;5041302;28;20452;-69
2021/08/22 08:15:00;;;;;;;10.33;9.17;;;24.80;99.90;;;;;;5035503;28;20475;-71
2021/08/22 08:17:27;;;;;;;10.20;7.13;;;24.60;99.90;;;;;;5041440;28;20555;-68
2021/08/22 08:19:54;;;;;;;14.43;10.13;;;24.30;99.90;;;;;;5036861;28;20538;-68
2021/08/22 08:22:23;;;;;;;15.40;9.07;;;23.90;99.90;;;;;;5030938;28;20455;-68
2021/08/22 08:24:51;;;;;;;13.17;9.37;;;23.60;99.90;;;;;;5032719;28;20482;-69
2021/08/22 08:27:18;;;;;;;12.53;8.60;;;23.70;99.90;;;;;;5030392;28;20468;-72
2021/08/22 08:29:45;;;;;;;13.90;9.90;;;24.10;99.90;;;;;;5032948;28;20491;-72
2021/08/22 08:32:12;;;;;;;13.53;9.57;;;24.80;99.90;;;;;;5042407;28;20519;-74
2021/08/22 08:34:39;;;;;;;12.30;8.50;;;25.10;99.90;;;;;;5039456;28;21055;-71
2021/08/22 08:37:06;;;;;;;11.50;9.53;;;25.00;99.90;;;;;;5042689;28;20539;-70
2021/08/22 08:39:33;;;;;;;11.33;8.43;;;25.00;99.90;;;;;;5042763;28;20518;-71
2021/08/22 08:42:17;;;;;;;6.97;5.17;;;24.70;99.90;;;;;;5042764;28;20505;-69
2021/08/22 08:44:44;;;;;;;9.43;8.43;;;24.60;99.90;;;;;;5016289;28;20487;-71
2021/08/22 08:47:11;;;;;;;16.70;7.70;;;24.30;99.90;;;;;;5040710;28;20479;-69
2021/08/22 08:49:40;;;;;;;9.03;6.10;;;24.00;99.90;;;;;;5039510;28;20772;-68
2021/08/22 08:52:11;;;;;;;7.53;6.73;;;23.70;99.90;;;;;;5037287;28;20510;-69
2021/08/22 08:54:38;;;;;;;8.30;6.10;;;23.50;99.90;;;;;;5036303;28;20487;-71
2021/08/22 08:57:05;;;;;;;10.37;7.37;;;23.10;99.90;;;;;;5038163;28;20459;-69
2021/08/22 08:59:34;;;;;;;9.90;7.33;;;22.70;99.90;;;;;;5041650;28;20481;-68
2021/08/22 09:02:01;;;;;;;9.20;7.40;;;22.20;99.90;;;;;;5043501;28;20566;-69
2021/08/22 09:04:34;;;;;;;8.77;7.50;;;21.90;99.90;;;;;;5035531;28;21036;-68
2021/08/22 09:07:34;;;;;;;9.50;8.43;;;21.60;99.90;;;;;;5046602;28;20525;-71
2021/08/22 09:10:42;;;;;;;10.90;8.00;;;21.40;99.90;;;;;;5047481;28;20479;-69
2021/08/22 09:13:43;;;;;;;8.87;6.50;;;21.40;99.90;;;;;;5038897;28;20523;-71
2021/08/22 09:16:51;;;;;;;8.50;6.87;;;21.40;99.90;;;;;;5034445;28;20557;-70
2021/08/22 09:19:56;;;;;;;6.67;4.90;;;21.40;99.90;;;;;;5027555;28;20476;-69
2021/08/22 09:23:12;;;;;;;10.77;7.80;;;21.50;99.90;;;;;;5044593;28;20471;-69
2021/08/22 09:26:15;;;;;;;9.73;6.80;;;22.00;99.90;;;;;;5019858;28;20483;-68
2021/08/22 09:29:34;;;;;;;9.37;6.80;;;23.80;99.90;;;;;;5026019;28;20463;-72
2021/08/22 09:32:46;;;;;;;10.23;7.03;;;25.30;99.90;;;;;;5037256;28;20538;-69
2021/08/22 09:35:50;;;;;;;6.73;6.03;;;25.80;99.90;;;;;;5018864;28;20949;-69
2021/08/22 09:39:00;;;;;;;6.67;6.00;;;26.80;99.90;;;;;;5011174;28;20569;-70
2021/08/22 09:42:01;;;;;;;9.70;5.50;;;28.00;99.90;;;;;;5007841;28;20496;-69
2021/08/22 09:45:05;;;;;;;13.10;6.60;;;29.00;99.90;;;;;;4997230;28;20638;-71
2021/08/22 09:48:11;;;;;;;8.17;6.13;;;29.20;99.90;;;;;;5003240;28;20464;-69
2021/08/22 09:51:21;;;;;;;6.77;6.10;;;29.20;99.90;;;;;;5010419;28;20903;-69
2021/08/22 09:54:27;;;;;;;7.60;6.80;;;28.10;99.90;;;;;;5007904;28;20460;-70
2021/08/22 09:57:34;;;;;;;9.20;6.77;;;26.50;99.90;;;;;;5009053;28;20543;-70
2021/08/22 10:00:31;;;;;;;7.87;6.63;;;25.70;99.90;;;;;;4986010;28;20965;-69
2021/08/22 10:03:36;;;;;;;9.30;6.37;;;25.00;99.90;;;;;;5012673;28;20809;-74
2021/08/22 10:06:25;;;;;;;9.87;5.83;;;25.00;99.90;;;;;;4928069;28;20477;-70
2021/08/22 10:08:57;;;;;;;7.73;7.00;;;24.70;99.90;;;;;;5015733;28;20537;-69
2021/08/22 10:11:27;;;;;;;6.90;6.17;;;24.80;99.90;;;;;;5020529;28;20452;-73
2021/08/22 10:13:54;;;;;;;7.40;5.27;;;24.90;99.90;;;;;;5025721;28;20470;-69
2021/08/22 10:16:23;;;;;;;4.70;4.20;;;24.70;99.90;;;;;;5029582;28;20999;-69
2021/08/22 10:18:51;;;;;;;5.10;3.87;;;24.60;99.90;;;;;;5014899;28;21024;-68
2021/08/22 10:21:26;;;;;;;6.30;4.50;;;24.50;99.90;;;;;;5011400;28;20934;-69
2021/08/22 10:23:56;;;;;;;4.00;3.50;;;24.60;99.90;;;;;;5015250;28;20487;-70
2021/08/22 10:26:49;;;;;;;6.00;4.23;;;24.60;99.90;;;;;;5015755;28;20992;-69
2021/08/22 10:29:33;;;;;;;4.63;4.07;;;24.70;99.90;;;;;;5025725;28;20818;-68
2021/08/22 10:32:11;;;;;;;5.07;4.43;;;24.20;99.90;;;;;;5022877;28;20985;-67
2021/08/22 10:34:43;;;;;;;4.80;3.83;;;23.80;99.90;;;;;;5015879;28;20480;-69
2021/08/22 10:37:30;;;;;;;4.27;3.23;;;23.80;99.90;;;;;;5023875;28;20494;-69
2021/08/22 10:39:59;;;;;;;5.77;3.33;;;24.00;99.90;;;;;;5031993;28;20465;-68
2021/08/22 10:42:28;;;;;;;4.57;3.90;;;24.30;99.90;;;;;;5034517;28;20539;-71
2021/08/22 10:44:55;;;;;;;4.10;3.30;;;25.00;99.90;;;;;;5017995;28;20481;-70
2021/08/22 10:47:43;;;;;;;5.43;3.10;;;25.30;99.90;;;;;;5019225;28;20466;-68
2021/08/22 10:50:14;;;;;;;4.50;3.40;;;25.00;99.90;;;;;;5025681;28;20830;-69
2021/08/22 10:52:41;;;;;;;4.53;3.43;;;24.70;99.90;;;;;;5024227;28;20475;-68
2021/08/22 10:55:32;;;;;;;4.63;3.80;;;24.30;99.90;;;;;;5021223;28;20601;-74
2021/08/22 10:58:00;;;;;;;5.43;3.63;;;24.30;99.90;;;;;;4999265;28;20958;-69
2021/08/22 11:00:29;;;;;;;3.90;3.60;;;24.20;99.90;;;;;;5028476;28;21058;-72
2021/08/22 11:02:57;;;;;;;5.93;4.40;;;24.10;99.90;;;;;;5026456;28;20453;-72
2021/08/22 11:05:26;;;;;;;9.03;4.10;;;24.00;99.90;;;;;;5023867;28;20516;-70
2021/08/22 11:07:55;;;;;;;3.80;2.97;;;24.20;99.90;;;;;;5026071;28;20508;-70
2021/08/22 11:10:24;;;;;;;3.77;3.30;;;24.60;99.90;;;;;;5028084;28;20547;-72
2021/08/22 11:12:52;;;;;;;7.87;4.60;;;25.00;99.90;;;;;;5018992;28;20844;-69
2021/08/22 11:15:27;;;;;;;5.37;4.00;;;26.20;99.90;;;;;;5017342;28;20528;-70
2021/08/22 11:17:55;;;;;;;5.57;3.80;;;27.20;99.90;;;;;;5027580;28;20880;-72
2021/08/22 11:20:27;;;;;;;3.60;3.20;;;27.40;99.90;;;;;;5031666;28;20504;-69
2021/08/22 11:23:03;;;;;;;3.00;1.70;;;27.00;99.90;;;;;;5024915;28;20981;-73
2021/08/22 11:25:31;;;;;;;7.90;2.90;;;26.80;99.90;;;;;;5023104;28;20508;-70
2021/08/22 11:28:08;;;;;;;3.10;2.40;;;26.90;99.90;;;;;;5032843;28;20929;-71
2021/08/22 11:30:35;;;;;;;2.17;1.73;;;27.90;99.90;;;;;;5032097;28;20440;-69
2021/08/22 11:33:03;;;;;;;3.70;1.80;;;28.80;99.90;;;;;;5017123;28;20456;-71
2021/08/22 11:35:35;;;;;;;2.80;2.13;;;29.10;99.90;;;;;;5023536;28;20517;-70
2021/08/22 11:38:02;;;;;;;3.67;2.37;;;29.80;99.90;;;;;;5018848;28;20543;-69
2021/08/22 11:40:30;;;;;;;2.70;2.50;;;29.30;99.90;;;;;;5029398;28;20550;-72
2021/08/22 11:42:58;;;;;;;5.70;2.60;;;28.50;99.90;;;;;;5023836;28;20476;-70
2021/08/22 11:45:27;;;;;;;2.57;2.20;;;28.50;99.90;;;;;;5019865;28;20573;-69
2021/08/22 11:47:55;;;;;;;2.70;2.50;;;28.50;99.90;;;;;;5023327;28;20548;-69
2021/08/22 11:50:27;;;;;;;4.27;2.50;;;28.70;99.90;;;;;;5041179;28;20537;-69
2021/08/22 11:52:57;;;;;;;4.47;2.90;;;28.60;99.90;;;;;;5034745;28;20983;-69
2021/08/22 11:55:31;;;;;;;3.10;2.80;;;28.60;99.90;;;;;;5018894;28;20576;-70
2021/08/22 11:58:11;;;;;;;2.70;2.40;;;27.60;99.90;;;;;;5030969;28;20463;-70
2021/08/22 12:00:39;;;;;;;5.80;5.03;;;27.40;99.90;;;;;;5025426;28;20518;-72
2021/08/22 12:03:11;;;;;;;5.03;3.00;;;27.30;99.90;;;;;;5027604;28;20815;-71
2021/08/22 12:05:53;;;;;;;3.90;2.70;;;26.90;99.90;;;;;;5025382;28;20600;-72
2021/08/22 12:08:23;;;;;;;3.50;2.63;;;26.50;99.90;;;;;;5008988;28;20548;-71
2021/08/22 12:10:50;;;;;;;3.23;2.40;;;26.00;99.90;;;;;;5006186;28;20459;-72
2021/08/22 12:13:19;;;;;;;3.10;1.73;;;25.60;99.90;;;;;;5013343;28;20464;-70
2021/08/22 12:15:49;;;;;;;3.90;2.40;;;25.50;99.90;;;;;;5014006;28;21044;-70
2021/08/22 12:18:22;;;;;;;4.50;2.77;;;25.30;99.90;;;;;;5021139;28;20450;-70
2021/08/22 12:20:50;;;;;;;2.83;2.47;;;25.30;99.90;;;;;;5018737;28;20848;-69
2021/08/22 12:23:18;;;;;;;2.40;2.20;;;25.10;99.90;;;;;;5017217;28;20484;-71
2021/08/22 12:25:46;;;;;;;3.27;2.30;;;25.10;99.90;;;;;;5017085;28;20939;-71
2021/08/22 12:28:21;;;;;;;13.67;3.03;;;25.40;99.90;;;;;;5017433;28;20534;-71
2021/08/22 12:30:49;;;;;;;3.77;2.57;;;25.90;99.90;;;;;;5013778;28;20810;-69
2021/08/22 12:33:29;;;;;;;3.00;1.70;;;25.80;99.90;;;;;;5012928;28;20460;-73
2021/08/22 12:36:18;;;;;;;3.70;2.37;;;25.90;99.90;;;;;;5009365;28;20625;-72
2021/08/22 12:38:48;;;;;;;4.57;3.20;;;25.90;99.90;;;;;;5005444;28;20531;-70
2021/08/22 12:41:32;;;;;;;4.40;3.30;;;26.00;99.90;;;;;;5005907;28;20484;-71
2021/08/22 12:44:01;;;;;;;3.30;3.00;;;26.10;99.90;;;;;;5011635;28;20461;-71
2021/08/22 12:46:29;;;;;;;2.60;2.40;;;26.30;99.90;;;;;;5021379;28;20943;-67
2021/08/22 12:54:09;;;;;;;5.00;2.83;;;26.00;99.90;;;;;;5415404;22;20505;-71
2021/08/22 12:56:37;;;;;;;3.37;2.70;;;25.90;99.90;;;;;;5029547;28;21178;-71
2021/08/22 12:59:04;;;;;;;3.77;2.60;;;27.00;99.90;;;;;;5044125;28;20533;-69
2021/08/22 13:01:32;;;;;;;11.20;3.40;;;28.20;99.90;;;;;;5038010;28;20462;-71
2021/08/22 13:03:59;;;;;;;3.87;2.90;;;29.70;99.90;;;;;;5032991;28;20479;-68
2021/08/22 13:06:26;;;;;;;5.27;3.30;;;30.50;98.40;;;;;;5033821;28;20532;-69